6.94C
пасмурно
пасмурно
Дата и времяТемператураДавление, мм рт.ст.Влажность, %Осадки
МинимумМаксимум
20.09.2020 02:007.65C8.4C75494небольшой дождь
20.09.2020 05:008C8.29C75395пасмурно
20.09.2020 08:008.76C8.88C75390пасмурно
20.09.2020 11:0011.79C11.83C75375пасмурно
20.09.2020 14:0014.07C14.07C75266пасмурно
20.09.2020 17:0013.03C13.03C75373пасмурно
20.09.2020 20:0011.24C11.24C75179пасмурно
20.09.2020 23:0010.95C10.95C75178пасмурно
21.09.2020 02:0010.73C10.73C74982пасмурно
21.09.2020 05:0010.21C10.21C74783облачно с прояснениями
21.09.2020 08:0012.04C12.04C74773облачно с прояснениями
21.09.2020 11:0015.1C15.1C74561облачно с прояснениями
21.09.2020 14:0016.25C16.25C74456пасмурно
21.09.2020 17:0013.93C13.93C74466небольшой дождь
21.09.2020 20:009.65C9.65C74478небольшой дождь
21.09.2020 23:007.47C7.47C74479переменная облачность
22.09.2020 02:006.49C6.49C74375переменная облачность
22.09.2020 05:005.42C5.42C74482облачно с прояснениями
22.09.2020 08:006.66C6.66C74484небольшой дождь
22.09.2020 11:006.9C6.9C74587небольшой дождь
22.09.2020 14:006.5C6.5C74787небольшой дождь
22.09.2020 17:005.56C5.56C74988небольшой дождь
22.09.2020 20:004.78C4.78C75089небольшой дождь
22.09.2020 23:004.5C4.5C75090небольшой дождь
23.09.2020 02:003.59C3.59C75092небольшой дождь
23.09.2020 05:003.15C3.15C74988пасмурно
23.09.2020 08:003.45C3.45C74985пасмурно
23.09.2020 11:005.99C5.99C74874облачно с прояснениями
23.09.2020 14:008.19C8.19C74859ясно
23.09.2020 17:007.28C7.28C74963переменная облачность
23.09.2020 20:005.08C5.08C75074пасмурно
23.09.2020 23:003.49C3.49C75178пасмурно
24.09.2020 02:002.62C2.62C75282пасмурно
24.09.2020 05:002.4C2.4C75388облачно с прояснениями
24.09.2020 08:004.47C4.47C75580облачно с прояснениями
24.09.2020 11:007.86C7.86C75666переменная облачность
24.09.2020 14:009.04C9.04C75754ясно
24.09.2020 17:007.54C7.54C75962ясно
24.09.2020 20:004.47C4.47C76174ясно
24.09.2020 23:003.38C3.38C76278ясно
Дата и время наблюдения: 19.09.2020 23:02:08